sensor_id;sensor_type;location;lat;lon;timestamp;temperature;humidity
9640;DHT22;51745;50.872;4.732;2022-08-21T00:01:28;15.20;99.90
9640;DHT22;51745;50.872;4.732;2022-08-21T00:04:15;15.10;99.90
9640;DHT22;51745;50.872;4.732;2022-08-21T00:07:07;15.10;99.90
9640;DHT22;51745;50.872;4.732;2022-08-21T00:09:55;15.10;99.90
9640;DHT22;51745;50.872;4.732;2022-08-21T00:12:45;15.10;99.90
9640;DHT22;51745;50.872;4.732;2022-08-21T00:15:34;15.00;99.90
9640;DHT22;51745;50.872;4.732;2022-08-21T00:18:22;15.00;99.90
9640;DHT22;51745;50.872;4.732;2022-08-21T00:21:10;14.90;99.90
9640;DHT22;51745;50.872;4.732;2022-08-21T00:23:58;14.90;99.90
9640;DHT22;51745;50.872;4.732;2022-08-21T00:26:47;14.90;99.90
9640;DHT22;51745;50.872;4.732;2022-08-21T00:29:39;14.90;99.90
9640;DHT22;51745;50.872;4.732;2022-08-21T00:32:27;14.80;99.90
9640;DHT22;51745;50.872;4.732;2022-08-21T00:35:16;14.80;99.90
9640;DHT22;51745;50.872;4.732;2022-08-21T00:38:06;14.80;99.90
9640;DHT22;51745;50.872;4.732;2022-08-21T00:40:55;14.80;99.90
9640;DHT22;51745;50.872;4.732;2022-08-21T00:44:01;14.70;99.90
9640;DHT22;51745;50.872;4.732;2022-08-21T00:46:51;15.10;99.90
9640;DHT22;51745;50.872;4.732;2022-08-21T00:49:40;14.60;99.90
9640;DHT22;51745;50.872;4.732;2022-08-21T00:52:31;14.60;99.90
9640;DHT22;51745;50.872;4.732;2022-08-21T00:55:20;14.60;99.90
9640;DHT22;51745;50.872;4.732;2022-08-21T00:58:11;14.50;99.90
9640;DHT22;51745;50.872;4.732;2022-08-21T01:01:03;14.40;99.90
9640;DHT22;51745;50.872;4.732;2022-08-21T01:03:55;14.40;99.90
9640;DHT22;51745;50.872;4.732;2022-08-21T01:06:46;14.40;99.90
9640;DHT22;51745;50.872;4.732;2022-08-21T01:09:34;14.40;99.90
9640;DHT22;51745;50.872;4.732;2022-08-21T01:12:21;14.70;99.90
9640;DHT22;51745;50.872;4.732;2022-08-21T01:15:09;14.30;99.90
9640;DHT22;51745;50.872;4.732;2022-08-21T01:17:57;14.30;99.90
9640;DHT22;51745;50.872;4.732;2022-08-21T01:20:52;14.30;99.90
9640;DHT22;51745;50.872;4.732;2022-08-21T01:23:45;14.20;99.90
9640;DHT22;51745;50.872;4.732;2022-08-21T01:26:34;14.20;99.90
9640;DHT22;51745;50.872;4.732;2022-08-21T01:29:26;14.20;99.90
9640;DHT22;51745;50.872;4.732;2022-08-21T01:32:18;14.20;99.90
9640;DHT22;51745;50.872;4.732;2022-08-21T01:35:07;14.20;99.90
9640;DHT22;51745;50.872;4.732;2022-08-21T01:37:57;14.10;99.90
9640;DHT22;51745;50.872;4.732;2022-08-21T01:40:45;14.20;99.90
9640;DHT22;51745;50.872;4.732;2022-08-21T01:43:33;14.10;99.90
9640;DHT22;51745;50.872;4.732;2022-08-21T01:46:25;14.10;99.90
9640;DHT22;51745;50.872;4.732;2022-08-21T01:49:12;14.10;99.90
9640;DHT22;51745;50.872;4.732;2022-08-21T01:52:00;14.00;99.90
9640;DHT22;51745;50.872;4.732;2022-08-21T01:54:51;13.90;99.90
9640;DHT22;51745;50.872;4.732;2022-08-21T01:57:40;14.00;99.90
9640;DHT22;51745;50.872;4.732;2022-08-21T02:00:28;14.00;99.90
9640;DHT22;51745;50.872;4.732;2022-08-21T02:03:16;14.30;99.90
9640;DHT22;51745;50.872;4.732;2022-08-21T02:06:20;13.90;99.90
9640;DHT22;51745;50.872;4.732;2022-08-21T02:09:08;14.00;99.90
9640;DHT22;51745;50.872;4.732;2022-08-21T02:11:58;13.90;99.90
9640;DHT22;51745;50.872;4.732;2022-08-21T02:14:45;13.90;99.90
9640;DHT22;51745;50.872;4.732;2022-08-21T02:17:37;13.80;99.90
9640;DHT22;51745;50.872;4.732;2022-08-21T02:20:25;13.80;99.90
9640;DHT22;51745;50.872;4.732;2022-08-21T02:23:14;13.70;99.90
9640;DHT22;51745;50.872;4.732;2022-08-21T02:26:07;13.70;99.90
9640;DHT22;51745;50.872;4.732;2022-08-21T02:28:56;13.70;99.90
9640;DHT22;51745;50.872;4.732;2022-08-21T02:31:44;13.70;99.90
9640;DHT22;51745;50.872;4.732;2022-08-21T02:34:35;13.70;99.90
9640;DHT22;51745;50.872;4.732;2022-08-21T02:37:22;13.70;99.90
9640;DHT22;51745;50.872;4.732;2022-08-21T02:40:10;13.60;99.90
9640;DHT22;51745;50.872;4.732;2022-08-21T02:42:59;13.60;99.90
9640;DHT22;51745;50.872;4.732;2022-08-21T02:45:48;13.50;99.90
9640;DHT22;51745;50.872;4.732;2022-08-21T02:48:39;13.50;99.90
9640;DHT22;51745;50.872;4.732;2022-08-21T02:51:27;13.40;99.90
9640;DHT22;51745;50.872;4.732;2022-08-21T02:54:15;13.40;99.90
9640;DHT22;51745;50.872;4.732;2022-08-21T02:57:03;14.60;99.90
9640;DHT22;51745;50.872;4.732;2022-08-21T02:59:51;13.40;99.90
9640;DHT22;51745;50.872;4.732;2022-08-21T03:02:41;13.40;99.90
9640;DHT22;51745;50.872;4.732;2022-08-21T03:05:30;13.30;99.90
9640;DHT22;51745;50.872;4.732;2022-08-21T03:08:18;13.30;99.90
9640;DHT22;51745;50.872;4.732;2022-08-21T03:11:10;13.30;99.90
9640;DHT22;51745;50.872;4.732;2022-08-21T03:13:58;13.20;99.90
9640;DHT22;51745;50.872;4.732;2022-08-21T03:16:45;13.20;99.90
9640;DHT22;51745;50.872;4.732;2022-08-21T03:19:35;13.10;99.90
9640;DHT22;51745;50.872;4.732;2022-08-21T03:22:23;13.10;99.90
9640;DHT22;51745;50.872;4.732;2022-08-21T03:25:12;13.50;99.90
9640;DHT22;51745;50.872;4.732;2022-08-21T03:28:00;13.00;99.90
9640;DHT22;51745;50.872;4.732;2022-08-21T03:30:50;13.00;99.90
9640;DHT22;51745;50.872;4.732;2022-08-21T03:33:38;13.00;99.90
9640;DHT22;51745;50.872;4.732;2022-08-21T03:36:27;13.00;99.90
9640;DHT22;51745;50.872;4.732;2022-08-21T03:39:15;12.90;99.90
9640;DHT22;51745;50.872;4.732;2022-08-21T03:42:03;12.90;99.90
9640;DHT22;51745;50.872;4.732;2022-08-21T03:44:52;12.90;99.90
9640;DHT22;51745;50.872;4.732;2022-08-21T03:47:49;12.90;99.90
9640;DHT22;51745;50.872;4.732;2022-08-21T03:50:37;12.90;99.90
9640;DHT22;51745;50.872;4.732;2022-08-21T03:53:27;12.90;99.90
9640;DHT22;51745;50.872;4.732;2022-08-21T03:56:16;13.50;99.90
9640;DHT22;51745;50.872;4.732;2022-08-21T03:59:04;12.80;99.90
9640;DHT22;51745;50.872;4.732;2022-08-21T04:01:52;12.80;99.90
9640;DHT22;51745;50.872;4.732;2022-08-21T04:04:40;12.80;99.90
9640;DHT22;51745;50.872;4.732;2022-08-21T04:07:28;12.80;99.90
9640;DHT22;51745;50.872;4.732;2022-08-21T04:10:18;12.70;99.90
9640;DHT22;51745;50.872;4.732;2022-08-21T04:13:07;12.70;99.90
9640;DHT22;51745;50.872;4.732;2022-08-21T04:15:55;12.70;99.90
9640;DHT22;51745;50.872;4.732;2022-08-21T04:18:44;12.70;99.90
9640;DHT22;51745;50.872;4.732;2022-08-21T04:21:31;12.60;99.90
9640;DHT22;51745;50.872;4.732;2022-08-21T04:24:20;12.60;99.90
9640;DHT22;51745;50.872;4.732;2022-08-21T04:27:09;12.60;99.90
9640;DHT22;51745;50.872;4.732;2022-08-21T04:29:57;12.50;99.90
9640;DHT22;51745;50.872;4.732;2022-08-21T04:32:46;12.60;99.90
9640;DHT22;51745;50.872;4.732;2022-08-21T04:35:35;12.50;99.90
9640;DHT22;51745;50.872;4.732;2022-08-21T04:38:22;12.50;99.90
9640;DHT22;51745;50.872;4.732;2022-08-21T04:41:21;12.50;99.90
9640;DHT22;51745;50.872;4.732;2022-08-21T04:44:14;12.50;99.90
9640;DHT22;51745;50.872;4.732;2022-08-21T04:47:02;12.50;99.90
9640;DHT22;51745;50.872;4.732;2022-08-21T04:49:50;12.50;99.90
9640;DHT22;51745;50.872;4.732;2022-08-21T04:52:38;12.50;99.90
9640;DHT22;51745;50.872;4.732;2022-08-21T04:55:26;12.50;99.90
9640;DHT22;51745;50.872;4.732;2022-08-21T04:58:15;12.60;99.90
9640;DHT22;51745;50.872;4.732;2022-08-21T05:01:07;12.50;99.90
9640;DHT22;51745;50.872;4.732;2022-08-21T05:03:57;12.60;99.90
9640;DHT22;51745;50.872;4.732;2022-08-21T05:06:45;12.60;99.90
9640;DHT22;51745;50.872;4.732;2022-08-21T05:09:34;12.60;99.90
9640;DHT22;51745;50.872;4.732;2022-08-21T05:12:21;12.90;99.90
9640;DHT22;51745;50.872;4.732;2022-08-21T05:15:10;12.70;99.90
9640;DHT22;51745;50.872;4.732;2022-08-21T05:18:00;12.70;99.90
9640;DHT22;51745;50.872;4.732;2022-08-21T05:20:48;12.70;99.90
9640;DHT22;51745;50.872;4.732;2022-08-21T05:23:39;12.80;99.90
9640;DHT22;51745;50.872;4.732;2022-08-21T05:26:27;12.80;99.90
9640;DHT22;51745;50.872;4.732;2022-08-21T05:29:15;12.80;99.90
9640;DHT22;51745;50.872;4.732;2022-08-21T05:32:07;12.80;99.90
9640;DHT22;51745;50.872;4.732;2022-08-21T05:34:57;12.80;99.90
9640;DHT22;51745;50.872;4.732;2022-08-21T05:37:45;12.80;99.90
9640;DHT22;51745;50.872;4.732;2022-08-21T05:40:33;12.80;99.90
9640;DHT22;51745;50.872;4.732;2022-08-21T05:43:21;12.90;99.90
9640;DHT22;51745;50.872;4.732;2022-08-21T05:46:09;12.90;99.90
9640;DHT22;51745;50.872;4.732;2022-08-21T05:48:57;12.90;99.90
9640;DHT22;51745;50.872;4.732;2022-08-21T05:51:47;12.90;99.90
9640;DHT22;51745;50.872;4.732;2022-08-21T05:54:35;13.00;99.90
9640;DHT22;51745;50.872;4.732;2022-08-21T05:57:23;13.00;99.90
9640;DHT22;51745;50.872;4.732;2022-08-21T06:00:11;13.00;99.90
9640;DHT22;51745;50.872;4.732;2022-08-21T06:03:00;13.30;99.90
9640;DHT22;51745;50.872;4.732;2022-08-21T06:05:47;13.40;99.90
9640;DHT22;51745;50.872;4.732;2022-08-21T06:08:38;13.80;99.90
9640;DHT22;51745;50.872;4.732;2022-08-21T06:11:26;14.10;99.90
9640;DHT22;51745;50.872;4.732;2022-08-21T06:14:14;14.20;99.90
9640;DHT22;51745;50.872;4.732;2022-08-21T06:17:02;14.50;99.90
9640;DHT22;51745;50.872;4.732;2022-08-21T06:19:51;14.50;99.90
9640;DHT22;51745;50.872;4.732;2022-08-21T06:22:39;14.60;99.90
9640;DHT22;51745;50.872;4.732;2022-08-21T06:25:28;14.50;99.90
9640;DHT22;51745;50.872;4.732;2022-08-21T06:28:16;14.50;99.90
9640;DHT22;51745;50.872;4.732;2022-08-21T06:31:09;14.50;99.90
9640;DHT22;51745;50.872;4.732;2022-08-21T06:33:57;14.50;99.90
9640;DHT22;51745;50.872;4.732;2022-08-21T06:36:45;14.40;99.90
9640;DHT22;51745;50.872;4.732;2022-08-21T06:39:33;14.50;99.90
9640;DHT22;51745;50.872;4.732;2022-08-21T06:42:24;14.50;99.90
9640;DHT22;51745;50.872;4.732;2022-08-21T06:45:14;14.50;99.90
9640;DHT22;51745;50.872;4.732;2022-08-21T06:48:03;14.60;99.90
9640;DHT22;51745;50.872;4.732;2022-08-21T06:50:51;14.60;99.90
9640;DHT22;51745;50.872;4.732;2022-08-21T06:53:39;14.70;99.90
9640;DHT22;51745;50.872;4.732;2022-08-21T06:56:28;14.70;99.90
9640;DHT22;51745;50.872;4.732;2022-08-21T06:59:17;14.80;99.90
9640;DHT22;51745;50.872;4.732;2022-08-21T07:02:05;14.90;99.90
9640;DHT22;51745;50.872;4.732;2022-08-21T07:04:53;15.00;99.90
9640;DHT22;51745;50.872;4.732;2022-08-21T07:07:41;15.10;99.90
9640;DHT22;51745;50.872;4.732;2022-08-21T07:10:29;15.20;99.90
9640;DHT22;51745;50.872;4.732;2022-08-21T07:13:17;15.30;99.90
9640;DHT22;51745;50.872;4.732;2022-08-21T07:16:06;15.30;99.90
9640;DHT22;51745;50.872;4.732;2022-08-21T07:18:56;15.40;99.90
9640;DHT22;51745;50.872;4.732;2022-08-21T07:21:44;15.50;99.90
9640;DHT22;51745;50.872;4.732;2022-08-21T07:24:32;15.70;99.90
9640;DHT22;51745;50.872;4.732;2022-08-21T07:27:20;15.80;99.90
9640;DHT22;51745;50.872;4.732;2022-08-21T07:30:09;15.90;99.90
9640;DHT22;51745;50.872;4.732;2022-08-21T07:32:58;16.00;99.90
9640;DHT22;51745;50.872;4.732;2022-08-21T07:35:46;16.10;99.90
9640;DHT22;51745;50.872;4.732;2022-08-21T07:38:34;16.20;99.90
9640;DHT22;51745;50.872;4.732;2022-08-21T07:41:24;16.40;99.90
9640;DHT22;51745;50.872;4.732;2022-08-21T07:44:12;16.60;99.90
9640;DHT22;51745;50.872;4.732;2022-08-21T07:47:01;16.80;99.90
9640;DHT22;51745;50.872;4.732;2022-08-21T07:49:51;16.90;99.90
9640;DHT22;51745;50.872;4.732;2022-08-21T07:52:39;17.00;99.90
9640;DHT22;51745;50.872;4.732;2022-08-21T07:55:30;17.10;99.90
9640;DHT22;51745;50.872;4.732;2022-08-21T07:58:17;17.20;99.90
9640;DHT22;51745;50.872;4.732;2022-08-21T08:01:06;17.20;99.90
9640;DHT22;51745;50.872;4.732;2022-08-21T08:03:53;17.30;99.90
9640;DHT22;51745;50.872;4.732;2022-08-21T08:06:46;17.40;99.90
9640;DHT22;51745;50.872;4.732;2022-08-21T08:09:55;17.50;99.90
9640;DHT22;51745;50.872;4.732;2022-08-21T08:12:43;16.80;99.90
9640;DHT22;51745;50.872;4.732;2022-08-21T08:15:30;17.90;99.90
9640;DHT22;51745;50.872;4.732;2022-08-21T08:18:22;18.10;99.90
9640;DHT22;51745;50.872;4.732;2022-08-21T08:21:11;18.30;99.90
9640;DHT22;51745;50.872;4.732;2022-08-21T08:24:01;18.40;99.90
9640;DHT22;51745;50.872;4.732;2022-08-21T08:27:05;18.60;99.90
9640;DHT22;51745;50.872;4.732;2022-08-21T08:29:53;18.70;99.90
9640;DHT22;51745;50.872;4.732;2022-08-21T08:32:42;18.90;99.90
9640;DHT22;51745;50.872;4.732;2022-08-21T08:35:31;19.10;99.90
9640;DHT22;51745;50.872;4.732;2022-08-21T08:38:19;19.10;99.90
9640;DHT22;51745;50.872;4.732;2022-08-21T08:41:12;19.20;99.90
9640;DHT22;51745;50.872;4.732;2022-08-21T08:44:01;19.40;99.90
9640;DHT22;51745;50.872;4.732;2022-08-21T08:46:49;20.90;99.90
9640;DHT22;51745;50.872;4.732;2022-08-21T08:49:44;19.40;99.90
9640;DHT22;51745;50.872;4.732;2022-08-21T08:52:35;19.40;99.90
9640;DHT22;51745;50.872;4.732;2022-08-21T08:55:23;19.40;99.90
9640;DHT22;51745;50.872;4.732;2022-08-21T08:58:16;19.30;99.90
9640;DHT22;51745;50.872;4.732;2022-08-21T09:01:05;19.30;99.90
9640;DHT22;51745;50.872;4.732;2022-08-21T09:03:55;19.70;99.90
9640;DHT22;51745;50.872;4.732;2022-08-21T09:06:46;19.30;99.90
9640;DHT22;51745;50.872;4.732;2022-08-21T09:09:41;19.40;99.90
9640;DHT22;51745;50.872;4.732;2022-08-21T09:12:35;19.50;99.90
9640;DHT22;51745;50.872;4.732;2022-08-21T09:15:28;19.60;99.90
9640;DHT22;51745;50.872;4.732;2022-08-21T09:18:21;19.60;99.90
9640;DHT22;51745;50.872;4.732;2022-08-21T09:21:14;19.70;99.90
9640;DHT22;51745;50.872;4.732;2022-08-21T09:24:06;19.80;99.90
9640;DHT22;51745;50.872;4.732;2022-08-21T09:27:00;20.00;99.90
9640;DHT22;51745;50.872;4.732;2022-08-21T09:29:50;20.10;99.90
9640;DHT22;51745;50.872;4.732;2022-08-21T09:32:41;20.20;99.90
9640;DHT22;51745;50.872;4.732;2022-08-21T09:35:29;20.30;99.90
9640;DHT22;51745;50.872;4.732;2022-08-21T09:38:24;20.50;99.90
9640;DHT22;51745;50.872;4.732;2022-08-21T09:41:12;20.60;99.90
9640;DHT22;51745;50.872;4.732;2022-08-21T09:44:00;20.60;99.90
9640;DHT22;51745;50.872;4.732;2022-08-21T09:46:49;20.70;99.90
9640;DHT22;51745;50.872;4.732;2022-08-21T09:49:40;20.60;99.90
9640;DHT22;51745;50.872;4.732;2022-08-21T09:52:29;20.70;99.90
9640;DHT22;51745;50.872;4.732;2022-08-21T09:55:23;21.00;99.90
9640;DHT22;51745;50.872;4.732;2022-08-21T09:58:30;21.30;99.90
9640;DHT22;51745;50.872;4.732;2022-08-21T10:01:20;21.40;99.90
9640;DHT22;51745;50.872;4.732;2022-08-21T10:04:09;21.80;99.90
9640;DHT22;51745;50.872;4.732;2022-08-21T10:07:09;22.00;99.90
9640;DHT22;51745;50.872;4.732;2022-08-21T10:09:59;22.00;99.90
9640;DHT22;51745;50.872;4.732;2022-08-21T10:12:51;22.10;99.90
9640;DHT22;51745;50.872;4.732;2022-08-21T10:15:46;22.10;99.90
9640;DHT22;51745;50.872;4.732;2022-08-21T10:18:36;22.00;99.90
9640;DHT22;51745;50.872;4.732;2022-08-21T10:21:28;21.90;99.90
9640;DHT22;51745;50.872;4.732;2022-08-21T10:24:24;21.90;99.90
9640;DHT22;51745;50.872;4.732;2022-08-21T10:27:20;22.00;99.90
9640;DHT22;51745;50.872;4.732;2022-08-21T10:30:10;22.00;99.90
9640;DHT22;51745;50.872;4.732;2022-08-21T10:33:02;22.00;99.90
9640;DHT22;51745;50.872;4.732;2022-08-21T10:35:57;22.00;99.90
9640;DHT22;51745;50.872;4.732;2022-08-21T10:38:55;21.90;99.90
9640;DHT22;51745;50.872;4.732;2022-08-21T10:42:12;21.90;99.90
9640;DHT22;51745;50.872;4.732;2022-08-21T10:45:07;22.00;99.90
9640;DHT22;51745;50.872;4.732;2022-08-21T10:48:02;22.30;99.90
9640;DHT22;51745;50.872;4.732;2022-08-21T10:50:51;22.50;99.90
9640;DHT22;51745;50.872;4.732;2022-08-21T10:53:42;23.00;99.90
9640;DHT22;51745;50.872;4.732;2022-08-21T10:56:33;23.30;99.90
9640;DHT22;51745;50.872;4.732;2022-08-21T10:59:28;23.00;99.90
9640;DHT22;51745;50.872;4.732;2022-08-21T11:02:27;22.90;99.90
9640;DHT22;51745;50.872;4.732;2022-08-21T11:05:19;22.50;99.90
9640;DHT22;51745;50.872;4.732;2022-08-21T11:08:10;22.10;99.90
9640;DHT22;51745;50.872;4.732;2022-08-21T11:11:01;21.90;99.90
9640;DHT22;51745;50.872;4.732;2022-08-21T11:13:55;21.90;99.90
9640;DHT22;51745;50.872;4.732;2022-08-21T11:16:46;22.10;99.90
9640;DHT22;51745;50.872;4.732;2022-08-21T11:19:38;22.40;99.90
9640;DHT22;51745;50.872;4.732;2022-08-21T11:22:31;22.80;99.90
9640;DHT22;51745;50.872;4.732;2022-08-21T11:25:23;23.00;99.90
9640;DHT22;51745;50.872;4.732;2022-08-21T11:28:23;23.30;99.90
9640;DHT22;51745;50.872;4.732;2022-08-21T11:31:15;23.00;99.90
9640;DHT22;51745;50.872;4.732;2022-08-21T11:34:11;22.80;99.90
9640;DHT22;51745;50.872;4.732;2022-08-21T11:37:04;22.60;99.90
9640;DHT22;51745;50.872;4.732;2022-08-21T11:39:54;22.50;99.90
9640;DHT22;51745;50.872;4.732;2022-08-21T11:42:45;23.30;99.90
9640;DHT22;51745;50.872;4.732;2022-08-21T11:45:39;22.90;99.90
9640;DHT22;51745;50.872;4.732;2022-08-21T11:48:32;22.80;99.90
9640;DHT22;51745;50.872;4.732;2022-08-21T11:51:24;22.80;99.90
9640;DHT22;51745;50.872;4.732;2022-08-21T11:54:16;22.60;99.90
9640;DHT22;51745;50.872;4.732;2022-08-21T11:57:11;22.30;99.90
9640;DHT22;51745;50.872;4.732;2022-08-21T12:00:02;22.30;99.90
9640;DHT22;51745;50.872;4.732;2022-08-21T12:02:58;22.40;99.90
9640;DHT22;51745;50.872;4.732;2022-08-21T12:05:52;22.70;99.90
9640;DHT22;51745;50.872;4.732;2022-08-21T12:08:45;22.60;99.90
9640;DHT22;51745;50.872;4.732;2022-08-21T12:11:45;22.80;99.90
9640;DHT22;51745;50.872;4.732;2022-08-21T12:14:38;22.70;99.90
9640;DHT22;51745;50.872;4.732;2022-08-21T12:17:34;22.50;99.90
9640;DHT22;51745;50.872;4.732;2022-08-21T12:20:26;22.90;99.90
9640;DHT22;51745;50.872;4.732;2022-08-21T12:23:24;23.20;99.90
9640;DHT22;51745;50.872;4.732;2022-08-21T12:26:28;23.50;99.90
9640;DHT22;51745;50.872;4.732;2022-08-21T12:29:16;23.60;99.90
9640;DHT22;51745;50.872;4.732;2022-08-21T12:32:20;23.60;99.90
9640;DHT22;51745;50.872;4.732;2022-08-21T12:35:12;23.90;99.90
9640;DHT22;51745;50.872;4.732;2022-08-21T12:38:12;24.20;99.90
9640;DHT22;51745;50.872;4.732;2022-08-21T12:41:03;24.50;99.90
9640;DHT22;51745;50.872;4.732;2022-08-21T12:43:54;24.70;99.90
9640;DHT22;51745;50.872;4.732;2022-08-21T12:46:46;24.40;99.90
9640;DHT22;51745;50.872;4.732;2022-08-21T12:49:36;24.30;99.90
9640;DHT22;51745;50.872;4.732;2022-08-21T12:52:29;24.40;99.90
9640;DHT22;51745;50.872;4.732;2022-08-21T12:55:26;24.70;99.90
9640;DHT22;51745;50.872;4.732;2022-08-21T12:58:18;25.10;99.90
9640;DHT22;51745;50.872;4.732;2022-08-21T13:01:20;25.30;99.90
9640;DHT22;51745;50.872;4.732;2022-08-21T13:04:11;25.40;99.90
9640;DHT22;51745;50.872;4.732;2022-08-21T13:07:00;25.60;99.90
9640;DHT22;51745;50.872;4.732;2022-08-21T13:09:51;25.70;99.90
9640;DHT22;51745;50.872;4.732;2022-08-21T13:12:40;25.80;99.90
9640;DHT22;51745;50.872;4.732;2022-08-21T13:15:29;25.70;99.90
9640;DHT22;51745;50.872;4.732;2022-08-21T13:18:23;25.50;99.90
9640;DHT22;51745;50.872;4.732;2022-08-21T13:21:12;25.20;99.90
9640;DHT22;51745;50.872;4.732;2022-08-21T13:24:07;24.80;99.90
9640;DHT22;51745;50.872;4.732;2022-08-21T13:27:19;24.50;99.90
9640;DHT22;51745;50.872;4.732;2022-08-21T13:30:10;24.10;99.90
9640;DHT22;51745;50.872;4.732;2022-08-21T13:32:59;23.70;99.90
9640;DHT22;51745;50.872;4.732;2022-08-21T13:35:49;23.50;99.90
9640;DHT22;51745;50.872;4.732;2022-08-21T13:38:39;23.60;99.90
9640;DHT22;51745;50.872;4.732;2022-08-21T13:41:28;23.70;99.90
9640;DHT22;51745;50.872;4.732;2022-08-21T13:44:17;24.00;99.90
9640;DHT22;51745;50.872;4.732;2022-08-21T13:47:06;24.50;99.90
9640;DHT22;51745;50.872;4.732;2022-08-21T13:49:55;24.50;99.90
9640;DHT22;51745;50.872;4.732;2022-08-21T13:52:53;25.00;99.90
9640;DHT22;51745;50.872;4.732;2022-08-21T13:55:42;25.20;99.90
9640;DHT22;51745;50.872;4.732;2022-08-21T13:58:41;25.20;99.90
9640;DHT22;51745;50.872;4.732;2022-08-21T14:01:29;24.70;99.90
9640;DHT22;51745;50.872;4.732;2022-08-21T14:04:20;24.50;99.90
9640;DHT22;51745;50.872;4.732;2022-08-21T14:07:14;24.50;99.90
9640;DHT22;51745;50.872;4.732;2022-08-21T14:10:07;24.10;99.90
9640;DHT22;51745;50.872;4.732;2022-08-21T14:12:59;23.90;99.90
9640;DHT22;51745;50.872;4.732;2022-08-21T14:15:53;23.80;99.90
9640;DHT22;51745;50.872;4.732;2022-08-21T14:18:53;23.60;99.90
9640;DHT22;51745;50.872;4.732;2022-08-21T14:21:46;23.50;99.90
9640;DHT22;51745;50.872;4.732;2022-08-21T14:24:38;23.50;99.90
9640;DHT22;51745;50.872;4.732;2022-08-21T14:27:27;23.60;99.90
9640;DHT22;51745;50.872;4.732;2022-08-21T14:30:17;23.70;99.90
9640;DHT22;51745;50.872;4.732;2022-08-21T14:33:08;23.70;99.90
9640;DHT22;51745;50.872;4.732;2022-08-21T14:35:56;23.60;99.90
9640;DHT22;51745;50.872;4.732;2022-08-21T14:38:44;23.60;99.90
9640;DHT22;51745;50.872;4.732;2022-08-21T14:41:32;23.60;99.90
9640;DHT22;51745;50.872;4.732;2022-08-21T14:44:21;23.40;99.90
9640;DHT22;51745;50.872;4.732;2022-08-21T14:47:08;23.40;99.90
9640;DHT22;51745;50.872;4.732;2022-08-21T14:49:56;23.50;99.90
9640;DHT22;51745;50.872;4.732;2022-08-21T14:52:44;23.40;99.90
9640;DHT22;51745;50.872;4.732;2022-08-21T14:55:34;23.30;99.90
9640;DHT22;51745;50.872;4.732;2022-08-21T14:58:38;23.20;99.90
9640;DHT22;51745;50.872;4.732;2022-08-21T15:01:28;23.20;99.90
9640;DHT22;51745;50.872;4.732;2022-08-21T15:04:16;23.30;99.90
9640;DHT22;51745;50.872;4.732;2022-08-21T15:07:03;23.30;99.90
9640;DHT22;51745;50.872;4.732;2022-08-21T15:09:52;23.40;99.90
9640;DHT22;51745;50.872;4.732;2022-08-21T15:12:40;23.40;99.90
9640;DHT22;51745;50.872;4.732;2022-08-21T15:15:28;23.40;99.90
9640;DHT22;51745;50.872;4.732;2022-08-21T15:18:17;23.50;99.90
9640;DHT22;51745;50.872;4.732;2022-08-21T15:21:04;23.50;99.90
9640;DHT22;51745;50.872;4.732;2022-08-21T15:23:52;23.40;99.90
9640;DHT22;51745;50.872;4.732;2022-08-21T15:26:40;23.30;99.90
9640;DHT22;51745;50.872;4.732;2022-08-21T15:29:28;23.30;99.90
9640;DHT22;51745;50.872;4.732;2022-08-21T15:32:19;23.20;99.90
9640;DHT22;51745;50.872;4.732;2022-08-21T15:35:11;23.20;99.90
9640;DHT22;51745;50.872;4.732;2022-08-21T15:37:59;23.20;99.90
9640;DHT22;51745;50.872;4.732;2022-08-21T15:40:47;23.30;99.90
9640;DHT22;51745;50.872;4.732;2022-08-21T15:43:44;23.30;99.90
9640;DHT22;51745;50.872;4.732;2022-08-21T15:46:33;23.40;99.90
9640;DHT22;51745;50.872;4.732;2022-08-21T15:49:20;23.40;99.90
9640;DHT22;51745;50.872;4.732;2022-08-21T15:52:10;23.50;99.90
9640;DHT22;51745;50.872;4.732;2022-08-21T15:54:57;23.50;99.90
9640;DHT22;51745;50.872;4.732;2022-08-21T15:57:46;23.50;99.90
9640;DHT22;51745;50.872;4.732;2022-08-21T16:00:43;23.40;99.90
9640;DHT22;51745;50.872;4.732;2022-08-21T16:03:33;23.30;99.90
9640;DHT22;51745;50.872;4.732;2022-08-21T16:06:21;23.30;99.90
9640;DHT22;51745;50.872;4.732;2022-08-21T16:09:30;23.20;99.90
9640;DHT22;51745;50.872;4.732;2022-08-21T16:12:19;23.10;99.90
9640;DHT22;51745;50.872;4.732;2022-08-21T16:15:09;23.10;99.90
9640;DHT22;51745;50.872;4.732;2022-08-21T16:18:05;23.10;99.90
9640;DHT22;51745;50.872;4.732;2022-08-21T16:20:55;23.00;99.90
9640;DHT22;51745;50.872;4.732;2022-08-21T16:23:43;22.90;99.90
9640;DHT22;51745;50.872;4.732;2022-08-21T16:26:32;22.80;99.90
9640;DHT22;51745;50.872;4.732;2022-08-21T16:29:20;22.80;99.90
9640;DHT22;51745;50.872;4.732;2022-08-21T16:32:07;22.80;99.90
9640;DHT22;51745;50.872;4.732;2022-08-21T16:34:55;22.80;99.90
9640;DHT22;51745;50.872;4.732;2022-08-21T16:37:43;22.80;99.90
9640;DHT22;51745;50.872;4.732;2022-08-21T16:40:35;22.70;99.90
9640;DHT22;51745;50.872;4.732;2022-08-21T16:43:26;22.70;99.90
9640;DHT22;51745;50.872;4.732;2022-08-21T16:46:15;22.60;99.90
9640;DHT22;51745;50.872;4.732;2022-08-21T16:49:03;22.30;99.90
9640;DHT22;51745;50.872;4.732;2022-08-21T16:51:51;22.50;99.90
9640;DHT22;51745;50.872;4.732;2022-08-21T16:54:39;22.50;99.90
9640;DHT22;51745;50.872;4.732;2022-08-21T16:57:28;22.40;99.90
9640;DHT22;51745;50.872;4.732;2022-08-21T17:00:17;22.30;99.90
9640;DHT22;51745;50.872;4.732;2022-08-21T17:03:05;22.30;99.90
9640;DHT22;51745;50.872;4.732;2022-08-21T17:05:52;22.30;99.90
9640;DHT22;51745;50.872;4.732;2022-08-21T17:08:39;22.20;99.90
9640;DHT22;51745;50.872;4.732;2022-08-21T17:11:28;22.20;99.90
9640;DHT22;51745;50.872;4.732;2022-08-21T17:14:23;22.10;99.90
9640;DHT22;51745;50.872;4.732;2022-08-21T17:17:12;22.00;99.90
9640;DHT22;51745;50.872;4.732;2022-08-21T17:20:03;22.00;99.90
9640;DHT22;51745;50.872;4.732;2022-08-21T17:22:51;21.80;99.90
9640;DHT22;51745;50.872;4.732;2022-08-21T17:25:40;21.80;99.90
9640;DHT22;51745;50.872;4.732;2022-08-21T17:28:31;21.70;99.90
9640;DHT22;51745;50.872;4.732;2022-08-21T17:31:21;21.60;99.90
9640;DHT22;51745;50.872;4.732;2022-08-21T17:34:11;21.60;99.90
9640;DHT22;51745;50.872;4.732;2022-08-21T17:36:59;20.60;99.90
9640;DHT22;51745;50.872;4.732;2022-08-21T17:39:47;21.60;99.90
9640;DHT22;51745;50.872;4.732;2022-08-21T17:42:35;21.60;99.90
9640;DHT22;51745;50.872;4.732;2022-08-21T17:45:23;21.60;99.90
9640;DHT22;51745;50.872;4.732;2022-08-21T17:48:11;21.60;99.90
9640;DHT22;51745;50.872;4.732;2022-08-21T17:51:00;21.60;99.90
9640;DHT22;51745;50.872;4.732;2022-08-21T17:53:49;21.40;99.90
9640;DHT22;51745;50.872;4.732;2022-08-21T17:56:38;21.50;99.90
9640;DHT22;51745;50.872;4.732;2022-08-21T17:59:27;21.40;99.90
9640;DHT22;51745;50.872;4.732;2022-08-21T18:02:15;21.30;99.90
9640;DHT22;51745;50.872;4.732;2022-08-21T18:05:06;21.40;99.90
9640;DHT22;51745;50.872;4.732;2022-08-21T18:07:56;21.30;99.90
9640;DHT22;51745;50.872;4.732;2022-08-21T18:10:45;21.20;99.90
9640;DHT22;51745;50.872;4.732;2022-08-21T18:13:35;21.20;99.90